createdAt,value
2018-08-31T00:01:03.848Z,23.80
2018-08-31T00:03:44.906Z,22.40
2018-08-31T00:06:26.373Z,22.40
2018-08-31T00:09:09.938Z,24.80
2018-08-31T00:12:06.130Z,20.40
2018-08-31T00:14:38.041Z,18.80
2018-08-31T00:17:10.329Z,18.00
2018-08-31T00:19:41.970Z,17.80
2018-08-31T00:22:14.488Z,19.80
2018-08-31T00:26:58.878Z,19.20
2018-08-31T00:30:39.822Z,25.20
2018-08-31T00:33:20.985Z,24.00
2018-08-31T00:38:05.941Z,17.00
2018-08-31T00:40:58.155Z,24.40
2018-08-31T00:43:59.964Z,24.20
2018-08-31T00:46:31.866Z,19.80
2018-08-31T00:49:04.197Z,17.60
2018-08-31T00:51:36.064Z,17.80
2018-08-31T00:54:07.917Z,18.60
2018-08-31T00:56:39.798Z,21.20
2018-08-31T00:59:12.112Z,17.20
2018-08-31T01:01:44.311Z,18.60
2018-08-31T01:04:16.668Z,17.40
2018-08-31T01:06:48.319Z,19.80
2018-08-31T01:09:20.236Z,24.60
2018-08-31T01:11:51.903Z,24.20
2018-08-31T01:14:24.112Z,22.40
2018-08-31T01:16:55.924Z,20.00
2018-08-31T01:19:28.146Z,20.20
2018-08-31T01:22:00.235Z,19.00
2018-08-31T01:24:32.739Z,20.80
2018-08-31T01:27:04.701Z,23.00
2018-08-31T01:29:36.526Z,21.40
2018-08-31T01:32:08.936Z,20.60
2018-08-31T01:34:42.095Z,22.40
2018-08-31T01:37:13.957Z,22.40
2018-08-31T01:39:45.729Z,25.00
2018-08-31T01:42:17.579Z,26.80
2018-08-31T01:44:49.836Z,24.80
2018-08-31T01:47:21.857Z,28.60
2018-08-31T01:49:53.724Z,27.40
2018-08-31T01:52:25.652Z,29.60
2018-08-31T01:54:57.665Z,28.00
2018-08-31T01:57:29.393Z,27.60
2018-08-31T02:00:01.501Z,22.40
2018-08-31T02:02:33.461Z,25.40
2018-08-31T02:05:05.423Z,31.60
2018-08-31T02:07:37.470Z,34.20
2018-08-31T02:10:09.673Z,33.80
2018-08-31T02:12:41.510Z,35.80
2018-08-31T02:15:15.094Z,41.80
2018-08-31T02:17:47.048Z,44.40
2018-08-31T02:20:19.035Z,40.40
2018-08-31T02:22:50.774Z,41.20
2018-08-31T02:25:23.621Z,38.60
2018-08-31T02:27:55.980Z,45.20
2018-08-31T02:30:28.018Z,53.40
2018-08-31T02:33:00.075Z,48.40
2018-08-31T02:35:31.927Z,45.20
2018-08-31T02:38:03.835Z,45.40
2018-08-31T02:40:35.831Z,42.80
2018-08-31T02:43:08.101Z,41.60
2018-08-31T02:45:39.704Z,45.80
2018-08-31T02:48:11.714Z,40.20
2018-08-31T02:50:43.654Z,39.20
2018-08-31T02:53:15.500Z,39.00
2018-08-31T02:55:47.180Z,36.60
2018-08-31T02:58:19.122Z,40.00
2018-08-31T03:00:51.789Z,37.00
2018-08-31T03:03:23.899Z,39.80
2018-08-31T03:05:55.839Z,38.20
2018-08-31T03:08:27.939Z,40.20
2018-08-31T03:10:59.660Z,41.60
2018-08-31T03:13:31.726Z,43.60
2018-08-31T03:16:03.560Z,42.40
2018-08-31T03:18:35.547Z,45.00
2018-08-31T03:21:07.198Z,44.20
2018-08-31T03:23:39.091Z,41.80
2018-08-31T03:26:11.079Z,46.40
2018-08-31T03:28:42.776Z,41.60
2018-08-31T03:31:14.892Z,40.80
2018-08-31T03:33:46.863Z,42.40
2018-08-31T03:36:19.040Z,41.40
2018-08-31T03:38:51.159Z,39.80
2018-08-31T03:41:22.924Z,43.60
2018-08-31T03:43:54.624Z,39.00
2018-08-31T03:46:26.674Z,39.60
2018-08-31T03:48:58.681Z,43.40
2018-08-31T03:51:30.690Z,42.20
2018-08-31T03:54:02.309Z,44.00
2018-08-31T03:56:34.242Z,39.20
2018-08-31T03:59:06.629Z,42.20
2018-08-31T04:01:39.417Z,43.60
2018-08-31T04:04:11.313Z,39.60
2018-08-31T04:06:43.209Z,36.40
2018-08-31T04:09:15.206Z,49.40
2018-08-31T04:11:46.974Z,42.80
2018-08-31T04:14:19.579Z,47.00
2018-08-31T04:16:51.614Z,33.80
2018-08-31T04:19:23.749Z,46.80
2018-08-31T04:21:55.510Z,39.60
2018-08-31T04:24:27.259Z,36.20
2018-08-31T04:26:59.103Z,42.80
2018-08-31T04:29:30.821Z,43.00
2018-08-31T04:32:03.006Z,45.80
2018-08-31T04:34:35.399Z,42.80
2018-08-31T04:37:07.885Z,49.40
2018-08-31T04:39:39.862Z,45.20
2018-08-31T04:42:11.817Z,44.20
2018-08-31T04:44:43.912Z,43.00
2018-08-31T04:47:16.337Z,42.00
2018-08-31T04:49:48.138Z,37.00
2018-08-31T04:52:20.032Z,36.60
2018-08-31T04:54:51.964Z,43.40
2018-08-31T04:57:23.827Z,43.20
2018-08-31T04:59:55.594Z,41.60
2018-08-31T05:02:28.563Z,42.60
2018-08-31T05:05:00.820Z,45.00
2018-08-31T05:07:33.066Z,48.60
2018-08-31T05:10:04.749Z,54.20
2018-08-31T05:12:36.610Z,47.80
2018-08-31T05:15:08.323Z,44.00
2018-08-31T05:17:40.145Z,45.40
2018-08-31T05:20:11.865Z,48.60
2018-08-31T05:22:44.274Z,52.40
2018-08-31T05:25:16.203Z,47.20
2018-08-31T05:27:48.058Z,52.00
2018-08-31T05:30:20.253Z,47.20
2018-08-31T05:32:52.497Z,47.40
2018-08-31T05:35:24.904Z,50.00
2018-08-31T05:37:56.739Z,52.60
2018-08-31T05:40:28.587Z,45.60
2018-08-31T05:43:00.636Z,54.20
2018-08-31T05:45:32.675Z,50.80
2018-08-31T05:48:04.309Z,53.20
2018-08-31T05:50:36.302Z,48.20
2018-08-31T05:53:08.143Z,53.00
2018-08-31T05:55:40.415Z,48.80
2018-08-31T05:58:12.010Z,47.60
2018-08-31T06:00:43.939Z,54.20
2018-08-31T06:03:16.222Z,49.60
2018-08-31T06:05:48.080Z,53.40
2018-08-31T06:08:19.948Z,45.60
2018-08-31T06:10:52.268Z,47.80
2018-08-31T06:13:24.216Z,51.00
2018-08-31T06:15:56.405Z,50.60
2018-08-31T06:18:28.399Z,49.00
2018-08-31T06:21:00.365Z,52.80
2018-08-31T06:23:32.307Z,49.40
2018-08-31T06:26:03.822Z,45.40
2018-08-31T06:28:35.490Z,44.20
2018-08-31T06:31:07.339Z,45.60
2018-08-31T06:33:39.334Z,46.00
2018-08-31T06:36:11.108Z,45.00
2018-08-31T06:38:42.844Z,36.20
2018-08-31T06:41:14.820Z,39.20
2018-08-31T06:43:46.825Z,41.20
2018-08-31T06:46:18.861Z,42.60
2018-08-31T06:48:50.677Z,39.60
2018-08-31T06:51:22.570Z,40.00
2018-08-31T06:53:54.735Z,41.20
2018-08-31T06:56:26.754Z,38.20
2018-08-31T06:58:58.622Z,38.60
2018-08-31T07:01:30.997Z,42.60
2018-08-31T07:04:03.597Z,40.00
2018-08-31T07:06:35.710Z,40.00
2018-08-31T07:09:10.000Z,36.20
2018-08-31T07:11:42.046Z,36.20
2018-08-31T07:14:14.108Z,38.20
2018-08-31T07:16:45.949Z,37.00
2018-08-31T07:19:17.931Z,36.60
2018-08-31T07:21:49.939Z,38.80
2018-08-31T07:24:21.791Z,40.00
2018-08-31T07:26:53.716Z,36.40
2018-08-31T07:29:25.564Z,41.00
2018-08-31T07:31:57.550Z,38.40
2018-08-31T07:34:29.094Z,40.60
2018-08-31T07:37:01.114Z,37.80
2018-08-31T07:39:33.533Z,38.40
2018-08-31T07:42:05.624Z,37.80
2018-08-31T07:44:37.596Z,37.60
2018-08-31T07:47:10.539Z,39.00
2018-08-31T07:49:42.466Z,34.00
2018-08-31T07:52:14.267Z,35.40
2018-08-31T07:54:46.492Z,33.00
2018-08-31T07:57:18.315Z,37.20
2018-08-31T07:59:50.105Z,36.40
2018-08-31T08:02:21.957Z,38.40
2018-08-31T08:04:54.348Z,37.00
2018-08-31T08:07:26.544Z,40.20
2018-08-31T08:09:58.646Z,37.20
2018-08-31T08:12:30.548Z,36.60
2018-08-31T08:15:02.230Z,41.40
2018-08-31T08:17:33.947Z,38.40
2018-08-31T08:20:06.190Z,40.00
2018-08-31T08:22:38.009Z,41.40
2018-08-31T08:25:10.222Z,39.20
2018-08-31T08:27:42.866Z,37.80
2018-08-31T08:30:14.793Z,38.60
2018-08-31T08:32:46.727Z,39.80
2018-08-31T08:35:19.072Z,39.40
2018-08-31T08:37:50.544Z,36.40
2018-08-31T08:40:22.491Z,37.00
2018-08-31T08:42:54.472Z,33.80
2018-08-31T08:45:26.372Z,35.40
2018-08-31T08:47:58.238Z,35.60
2018-08-31T08:50:29.975Z,35.40
2018-08-31T08:53:02.851Z,37.20
2018-08-31T08:55:35.500Z,35.20
2018-08-31T08:58:07.953Z,35.20
2018-08-31T09:00:40.060Z,34.40
2018-08-31T09:03:11.768Z,36.40
2018-08-31T09:05:43.505Z,36.40
2018-08-31T09:08:15.560Z,34.00
2018-08-31T09:10:47.558Z,33.20
2018-08-31T09:13:19.451Z,37.00
2018-08-31T09:15:51.220Z,34.00
2018-08-31T09:18:29.681Z,34.40
2018-08-31T09:21:01.613Z,34.40
2018-08-31T09:23:34.015Z,35.20
2018-08-31T09:26:09.319Z,34.40
2018-08-31T09:28:40.939Z,33.60
2018-08-31T09:31:15.837Z,33.80
2018-08-31T09:33:47.713Z,34.00
2018-08-31T09:36:19.495Z,34.60
2018-08-31T09:38:51.207Z,34.40
2018-08-31T09:41:23.225Z,35.40
2018-08-31T09:43:56.246Z,32.60
2018-08-31T09:46:28.165Z,36.60
2018-08-31T09:49:00.079Z,34.00
2018-08-31T09:51:31.882Z,34.80
2018-08-31T09:54:03.767Z,36.00
2018-08-31T09:56:35.826Z,33.80
2018-08-31T09:59:07.821Z,34.60
2018-08-31T10:01:39.841Z,34.40
2018-08-31T10:04:11.670Z,35.40
2018-08-31T10:06:43.707Z,32.40
2018-08-31T10:09:15.646Z,34.20
2018-08-31T10:11:47.738Z,32.20
2018-08-31T10:14:19.395Z,32.60
2018-08-31T10:16:51.768Z,30.60
2018-08-31T10:19:23.428Z,32.60
2018-08-31T10:21:55.245Z,32.80
2018-08-31T10:24:26.800Z,32.20
2018-08-31T10:26:58.953Z,33.20
2018-08-31T10:29:31.438Z,31.40
2018-08-31T10:32:03.115Z,34.00
2018-08-31T10:34:35.002Z,33.00
2018-08-31T10:37:07.083Z,32.40
2018-08-31T10:39:38.941Z,33.00
2018-08-31T10:42:10.753Z,32.60
2018-08-31T10:44:42.422Z,33.40
2018-08-31T10:47:14.248Z,31.80
2018-08-31T10:49:46.176Z,34.40
2018-08-31T10:52:18.025Z,32.80
2018-08-31T10:54:49.878Z,34.00
2018-08-31T10:57:22.000Z,34.20
2018-08-31T10:59:54.213Z,32.60
2018-08-31T11:02:26.196Z,33.60
2018-08-31T11:04:57.931Z,30.00
2018-08-31T11:07:30.237Z,33.60
2018-08-31T11:10:01.935Z,33.60
2018-08-31T11:12:33.926Z,33.40
2018-08-31T11:15:06.141Z,34.40
2018-08-31T11:17:37.832Z,34.00
2018-08-31T11:20:09.994Z,34.20
2018-08-31T11:22:42.750Z,30.00
2018-08-31T11:25:14.661Z,38.20
2018-08-31T11:27:46.864Z,34.80
2018-08-31T11:30:19.115Z,35.20
2018-08-31T11:32:51.067Z,35.80
2018-08-31T11:35:23.209Z,36.20
2018-08-31T11:37:55.763Z,35.40
2018-08-31T11:40:27.830Z,36.20
2018-08-31T11:42:59.963Z,35.20
2018-08-31T11:45:32.064Z,39.00
2018-08-31T11:48:04.286Z,25.80
2018-08-31T11:50:35.987Z,29.80
2018-08-31T11:53:08.362Z,36.40
2018-08-31T11:55:40.122Z,32.20
2018-08-31T11:58:12.214Z,32.20
2018-08-31T12:00:44.017Z,33.80
2018-08-31T12:03:16.328Z,34.00
2018-08-31T12:05:48.211Z,35.60
2018-08-31T12:08:18.855Z,38.00
2018-08-31T12:10:51.244Z,36.40
2018-08-31T12:13:22.998Z,35.60
2018-08-31T12:15:54.852Z,35.40
2018-08-31T12:18:26.899Z,32.00
2018-08-31T12:20:58.828Z,34.20
2018-08-31T12:23:31.629Z,33.40
2018-08-31T12:26:03.520Z,31.20
2018-08-31T12:28:35.088Z,32.00
2018-08-31T12:31:07.273Z,31.60
2018-08-31T12:33:39.218Z,32.20
2018-08-31T12:36:11.375Z,31.00
2018-08-31T12:38:44.207Z,31.60
2018-08-31T12:41:15.955Z,33.00
2018-08-31T12:43:48.639Z,31.20
2018-08-31T12:46:20.567Z,35.00
2018-08-31T12:48:53.882Z,36.00
2018-08-31T12:51:25.967Z,37.60
2018-08-31T12:53:57.985Z,37.20
2018-08-31T12:56:30.390Z,36.80
2018-08-31T12:59:02.469Z,39.00
2018-08-31T13:01:34.869Z,37.80
2018-08-31T13:04:07.755Z,36.80
2018-08-31T13:06:39.791Z,37.20
2018-08-31T13:09:11.317Z,36.80
2018-08-31T13:11:43.009Z,32.40
2018-08-31T13:14:14.649Z,31.80
2018-08-31T13:16:46.367Z,33.60
2018-08-31T13:19:18.041Z,34.60
2018-08-31T13:21:49.770Z,34.40
2018-08-31T13:24:22.551Z,31.20
2018-08-31T13:26:54.537Z,29.20
2018-08-31T13:29:26.498Z,28.40
2018-08-31T13:31:59.261Z,33.00
2018-08-31T13:34:31.281Z,31.40
2018-08-31T13:37:03.598Z,33.20
2018-08-31T13:39:35.916Z,32.20
2018-08-31T13:42:08.021Z,33.00
2018-08-31T13:44:39.815Z,35.60
2018-08-31T13:47:12.091Z,33.20
2018-08-31T13:49:43.842Z,34.60
2018-08-31T13:52:15.856Z,36.00
2018-08-31T13:54:47.686Z,31.80
2018-08-31T13:57:19.423Z,34.20
2018-08-31T13:59:51.764Z,33.40
2018-08-31T14:02:23.568Z,36.20
2018-08-31T14:04:55.524Z,39.20
2018-08-31T14:07:27.364Z,33.00
2018-08-31T14:09:59.147Z,36.80
2018-08-31T14:12:31.298Z,36.40
2018-08-31T14:15:03.545Z,36.60
2018-08-31T14:17:35.962Z,34.60
2018-08-31T14:20:07.803Z,33.80
2018-08-31T14:22:39.848Z,35.00
2018-08-31T14:25:12.428Z,36.20
2018-08-31T14:27:44.263Z,36.40
2018-08-31T14:30:16.143Z,38.40
2018-08-31T14:32:48.155Z,35.20
2018-08-31T14:35:20.183Z,34.00
2018-08-31T14:37:52.396Z,40.00
2018-08-31T14:40:24.389Z,38.60
2018-08-31T14:42:56.313Z,40.20
2018-08-31T14:45:28.397Z,45.00
2018-08-31T14:48:00.272Z,43.40
2018-08-31T14:50:32.231Z,42.80
2018-08-31T14:53:03.909Z,42.40
2018-08-31T14:55:35.718Z,42.40
2018-08-31T14:58:07.390Z,44.80
2018-08-31T15:00:39.478Z,44.00
2018-08-31T15:03:11.820Z,42.40
2018-08-31T15:05:43.986Z,38.20
2018-08-31T15:08:15.311Z,39.40
2018-08-31T15:10:47.678Z,38.80
2018-08-31T15:13:22.493Z,37.80
2018-08-31T15:15:54.621Z,41.80
2018-08-31T15:18:26.513Z,39.60
2018-08-31T15:20:58.504Z,39.40
2018-08-31T15:23:30.697Z,39.00
2018-08-31T15:26:03.270Z,40.00
2018-08-31T15:28:35.509Z,39.60
2018-08-31T15:31:07.302Z,40.00
2018-08-31T15:33:39.345Z,40.20
2018-08-31T15:36:12.304Z,40.00
2018-08-31T15:38:44.805Z,36.40
2018-08-31T15:41:17.397Z,37.80
2018-08-31T15:43:49.446Z,37.00
2018-08-31T15:46:21.798Z,37.00
2018-08-31T15:48:53.900Z,37.00
2018-08-31T15:51:26.007Z,35.60
2018-08-31T15:53:58.290Z,38.20
2018-08-31T15:56:30.270Z,36.20
2018-08-31T15:59:02.420Z,34.80
2018-08-31T16:01:34.800Z,36.20
2018-08-31T16:04:06.861Z,35.60
2018-08-31T16:06:39.277Z,33.40
2018-08-31T16:09:11.979Z,35.40
2018-08-31T16:11:44.093Z,37.40
2018-08-31T16:14:16.136Z,34.20
2018-08-31T16:16:48.113Z,36.20
2018-08-31T16:19:20.238Z,34.80
2018-08-31T16:21:52.987Z,34.00
2018-08-31T16:24:26.053Z,33.80
2018-08-31T16:26:58.785Z,33.60
2018-08-31T16:29:30.414Z,34.00
2018-08-31T16:32:02.106Z,33.40
2018-08-31T16:34:34.798Z,36.00
2018-08-31T16:37:07.131Z,35.40
2018-08-31T16:39:39.029Z,34.20
2018-08-31T16:42:10.703Z,35.80
2018-08-31T16:44:43.272Z,33.00
2018-08-31T16:47:18.201Z,33.40
2018-08-31T16:49:49.756Z,32.40
2018-08-31T16:52:21.297Z,34.60
2018-08-31T16:54:53.580Z,32.00
2018-08-31T16:57:25.306Z,30.80
2018-08-31T16:59:57.005Z,30.80
2018-08-31T17:02:29.250Z,30.00
2018-08-31T17:05:03.256Z,33.40
2018-08-31T17:07:35.498Z,27.40
2018-08-31T17:10:08.196Z,32.00
2018-08-31T17:12:40.563Z,31.80
2018-08-31T17:15:12.658Z,33.20
2018-08-31T17:17:45.065Z,29.60
2018-08-31T17:20:16.993Z,32.20
2018-08-31T17:22:49.012Z,32.60
2018-08-31T17:25:20.633Z,32.40
2018-08-31T17:27:57.246Z,27.20
2018-08-31T17:30:29.038Z,30.00
2018-08-31T17:34:06.748Z,29.40
2018-08-31T17:36:43.213Z,27.60
2018-08-31T17:39:16.285Z,32.20
2018-08-31T17:41:48.455Z,30.20
2018-08-31T17:44:20.669Z,31.80
2018-08-31T17:46:52.534Z,28.40
2018-08-31T17:49:25.214Z,27.60
2018-08-31T17:51:57.630Z,27.80
2018-08-31T17:54:29.528Z,29.00
2018-08-31T17:57:01.711Z,31.80
2018-08-31T17:59:33.484Z,26.40
2018-08-31T18:02:05.609Z,22.60
2018-08-31T18:04:37.800Z,30.40
2018-08-31T18:07:09.576Z,28.60
2018-08-31T18:09:42.383Z,28.00
2018-08-31T18:12:14.517Z,27.40
2018-08-31T18:14:47.597Z,28.80
2018-08-31T18:17:19.756Z,28.80
2018-08-31T18:19:51.795Z,30.80
2018-08-31T18:22:23.668Z,29.60
2018-08-31T18:24:56.085Z,27.00
2018-08-31T18:27:28.533Z,31.60
2018-08-31T18:30:00.670Z,31.00
2018-08-31T18:32:32.488Z,29.80
2018-08-31T18:35:04.560Z,27.80
2018-08-31T18:37:36.871Z,22.40
2018-08-31T18:40:09.949Z,31.40
2018-08-31T18:42:42.041Z,28.60
2018-08-31T18:45:14.439Z,31.40
2018-08-31T18:47:46.376Z,31.80
2018-08-31T18:50:18.973Z,30.60
2018-08-31T18:52:51.070Z,28.40
2018-08-31T18:55:23.506Z,30.00
2018-08-31T18:57:55.764Z,27.20
2018-08-31T19:00:28.670Z,28.60
2018-08-31T19:03:01.047Z,23.80
2018-08-31T19:05:33.024Z,22.40
2018-08-31T19:08:05.533Z,28.40
2018-08-31T19:10:37.617Z,27.40
2018-08-31T19:13:16.292Z,32.20
2018-08-31T19:15:50.952Z,27.20
2018-08-31T19:18:23.095Z,32.60
2018-08-31T19:20:57.355Z,28.20
2018-08-31T19:23:29.492Z,30.60
2018-08-31T19:26:02.231Z,30.00
2018-08-31T19:28:35.314Z,29.00
2018-08-31T19:31:07.666Z,26.40
2018-08-31T19:33:40.525Z,30.60
2018-08-31T19:36:12.759Z,30.80
2018-08-31T19:38:44.606Z,25.60
2018-08-31T19:41:18.371Z,29.40
2018-08-31T19:43:50.773Z,28.80
2018-08-31T19:46:22.675Z,26.40
2018-08-31T19:48:54.529Z,28.40
2018-08-31T19:51:27.197Z,27.60
2018-08-31T19:53:59.381Z,26.40
2018-08-31T19:56:31.998Z,30.00
2018-08-31T19:59:03.839Z,28.80
2018-08-31T20:01:35.648Z,26.80
2018-08-31T20:04:07.935Z,31.40
2018-08-31T20:06:40.262Z,30.80
2018-08-31T20:09:12.678Z,29.40
2018-08-31T20:11:44.756Z,30.80
2018-08-31T20:14:17.413Z,25.80
2018-08-31T20:16:49.753Z,30.40
2018-08-31T20:19:22.214Z,28.20
2018-08-31T20:21:54.257Z,27.40
2018-08-31T20:24:26.234Z,26.20
2018-08-31T20:26:59.254Z,28.20
2018-08-31T20:29:31.215Z,28.00
2018-08-31T20:32:03.911Z,30.80
2018-08-31T20:34:36.099Z,29.00
2018-08-31T20:37:08.239Z,30.80
2018-08-31T20:39:40.570Z,26.60
2018-08-31T20:42:13.234Z,27.60
2018-08-31T20:44:44.726Z,28.80
2018-08-31T20:47:18.382Z,28.60
2018-08-31T20:49:51.557Z,26.80
2018-08-31T20:52:24.052Z,28.00
2018-08-31T20:54:56.709Z,29.00
2018-08-31T20:57:29.524Z,32.00
2018-08-31T21:00:02.301Z,31.00
2018-08-31T21:02:34.188Z,31.00
2018-08-31T21:05:06.462Z,30.80
2018-08-31T21:07:38.747Z,28.40
2018-08-31T21:10:12.531Z,29.40
2018-08-31T21:12:44.242Z,27.60
2018-08-31T21:15:17.172Z,29.80
2018-08-31T21:17:48.873Z,27.20
2018-08-31T21:20:20.875Z,24.40
2018-08-31T21:22:52.981Z,28.60
2018-08-31T21:25:25.892Z,26.00
2018-08-31T21:27:57.661Z,30.20
2018-08-31T21:30:29.762Z,26.60
2018-08-31T21:33:02.070Z,30.60
2018-08-31T21:35:34.325Z,30.60
2018-08-31T21:40:44.755Z,30.60
2018-08-31T21:43:16.969Z,28.00
2018-08-31T21:45:48.860Z,31.00
2018-08-31T21:48:20.955Z,23.80
2018-08-31T21:50:53.589Z,30.20
2018-08-31T21:53:25.738Z,27.00
2018-08-31T21:55:57.364Z,25.40
2018-08-31T21:58:30.159Z,29.20
2018-08-31T22:01:07.648Z,32.40
2018-08-31T22:03:39.211Z,31.00
2018-08-31T22:06:11.605Z,25.60
2018-08-31T22:08:43.374Z,30.20
2018-08-31T22:11:15.229Z,26.20
2018-08-31T22:13:47.023Z,28.40
2018-08-31T22:16:19.259Z,31.00
2018-08-31T22:18:51.272Z,29.00
2018-08-31T22:21:23.367Z,32.60
2018-08-31T22:23:55.751Z,29.40
2018-08-31T22:26:27.745Z,31.20
2018-08-31T22:28:59.705Z,34.00
2018-08-31T22:31:31.448Z,33.20
2018-08-31T22:34:03.302Z,36.00
2018-08-31T22:36:34.982Z,33.60
2018-08-31T22:39:08.473Z,34.40
2018-08-31T22:41:40.075Z,31.20
2018-08-31T22:44:11.826Z,35.20
2018-08-31T22:46:43.663Z,34.20
2018-08-31T22:49:15.639Z,35.60
2018-08-31T22:51:47.081Z,34.00
2018-08-31T22:54:19.281Z,37.00
2018-08-31T22:56:51.384Z,34.40
2018-08-31T22:59:23.589Z,36.40
2018-08-31T23:01:55.193Z,35.80
2018-08-31T23:04:26.844Z,37.60
2018-08-31T23:06:58.654Z,36.00
2018-08-31T23:09:30.874Z,34.00
2018-08-31T23:12:03.156Z,32.40
2018-08-31T23:14:35.631Z,33.00
2018-08-31T23:17:07.753Z,33.00
2018-08-31T23:19:39.574Z,34.20
2018-08-31T23:22:12.019Z,33.80
2018-08-31T23:24:44.007Z,32.40
2018-08-31T23:27:15.800Z,32.40
2018-08-31T23:29:47.627Z,31.20
2018-08-31T23:32:19.572Z,33.20
2018-08-31T23:34:51.809Z,32.40
2018-08-31T23:37:23.844Z,33.00
2018-08-31T23:39:56.011Z,34.00
2018-08-31T23:42:28.021Z,36.20
2018-08-31T23:44:59.986Z,32.00
2018-08-31T23:47:31.619Z,33.40
2018-08-31T23:50:03.451Z,28.40
2018-08-31T23:52:34.876Z,32.20
2018-08-31T23:55:06.896Z,31.80
2018-08-31T23:57:39.062Z,31.40
